sensor_id;sensor_type;location;lat;lon;timestamp;temperature;humidity
8633;DHT22;4354;49.832;10.746;2022-12-07T00:01:22;2.80;99.90
8633;DHT22;4354;49.832;10.746;2022-12-07T00:03:51;2.80;99.90
8633;DHT22;4354;49.832;10.746;2022-12-07T00:06:19;2.80;99.90
8633;DHT22;4354;49.832;10.746;2022-12-07T00:08:47;2.80;99.90
8633;DHT22;4354;49.832;10.746;2022-12-07T00:11:17;2.80;99.90
8633;DHT22;4354;49.832;10.746;2022-12-07T00:13:45;2.80;99.90
8633;DHT22;4354;49.832;10.746;2022-12-07T00:16:17;2.70;99.90
8633;DHT22;4354;49.832;10.746;2022-12-07T00:18:45;2.70;99.90
8633;DHT22;4354;49.832;10.746;2022-12-07T00:21:26;2.70;99.90
8633;DHT22;4354;49.832;10.746;2022-12-07T00:23:55;2.70;99.90
8633;DHT22;4354;49.832;10.746;2022-12-07T00:26:34;2.70;99.90
8633;DHT22;4354;49.832;10.746;2022-12-07T00:29:22;2.70;99.90
8633;DHT22;4354;49.832;10.746;2022-12-07T00:31:50;2.70;99.90
8633;DHT22;4354;49.832;10.746;2022-12-07T00:34:19;2.70;99.90
8633;DHT22;4354;49.832;10.746;2022-12-07T00:36:47;2.60;99.90
8633;DHT22;4354;49.832;10.746;2022-12-07T00:39:14;2.60;99.90
8633;DHT22;4354;49.832;10.746;2022-12-07T00:41:42;2.60;99.90
8633;DHT22;4354;49.832;10.746;2022-12-07T00:44:09;2.60;99.90
8633;DHT22;4354;49.832;10.746;2022-12-07T00:46:36;2.60;99.90
8633;DHT22;4354;49.832;10.746;2022-12-07T00:49:03;2.60;99.90
8633;DHT22;4354;49.832;10.746;2022-12-07T00:51:29;2.60;99.90
8633;DHT22;4354;49.832;10.746;2022-12-07T00:53:56;2.60;99.90
8633;DHT22;4354;49.832;10.746;2022-12-07T00:56:26;2.60;99.90
8633;DHT22;4354;49.832;10.746;2022-12-07T00:58:55;2.50;99.90
8633;DHT22;4354;49.832;10.746;2022-12-07T01:01:24;2.50;99.90
8633;DHT22;4354;49.832;10.746;2022-12-07T01:03:52;2.50;99.90
8633;DHT22;4354;49.832;10.746;2022-12-07T01:06:20;2.50;99.90
8633;DHT22;4354;49.832;10.746;2022-12-07T01:08:47;2.50;99.90
8633;DHT22;4354;49.832;10.746;2022-12-07T01:11:17;2.50;99.90
8633;DHT22;4354;49.832;10.746;2022-12-07T01:13:44;2.50;99.90
8633;DHT22;4354;49.832;10.746;2022-12-07T01:16:13;2.50;99.90
8633;DHT22;4354;49.832;10.746;2022-12-07T01:18:41;2.50;99.90
8633;DHT22;4354;49.832;10.746;2022-12-07T01:21:16;2.50;99.90
8633;DHT22;4354;49.832;10.746;2022-12-07T01:23:44;2.50;99.90
8633;DHT22;4354;49.832;10.746;2022-12-07T01:26:13;2.40;99.90
8633;DHT22;4354;49.832;10.746;2022-12-07T01:28:40;2.40;99.90
8633;DHT22;4354;49.832;10.746;2022-12-07T01:31:12;2.40;99.90
8633;DHT22;4354;49.832;10.746;2022-12-07T01:33:53;2.40;99.90
8633;DHT22;4354;49.832;10.746;2022-12-07T01:38:48;2.30;99.90
8633;DHT22;4354;49.832;10.746;2022-12-07T01:41:19;2.20;99.90
8633;DHT22;4354;49.832;10.746;2022-12-07T01:44:22;2.10;99.90
8633;DHT22;4354;49.832;10.746;2022-12-07T01:47:01;2.00;99.90
8633;DHT22;4354;49.832;10.746;2022-12-07T01:49:35;1.90;99.90
8633;DHT22;4354;49.832;10.746;2022-12-07T01:52:14;1.90;99.90
8633;DHT22;4354;49.832;10.746;2022-12-07T01:54:43;1.90;99.90
8633;DHT22;4354;49.832;10.746;2022-12-07T01:57:12;1.90;99.90
8633;DHT22;4354;49.832;10.746;2022-12-07T01:59:42;1.80;99.90
8633;DHT22;4354;49.832;10.746;2022-12-07T02:02:15;1.80;99.90
8633;DHT22;4354;49.832;10.746;2022-12-07T02:12:38;1.90;99.90
8633;DHT22;4354;49.832;10.746;2022-12-07T02:15:05;1.90;99.90
8633;DHT22;4354;49.832;10.746;2022-12-07T02:18:00;1.80;99.90
8633;DHT22;4354;49.832;10.746;2022-12-07T02:30:00;1.90;99.90
8633;DHT22;4354;49.832;10.746;2022-12-07T02:32:43;1.90;99.90
8633;DHT22;4354;49.832;10.746;2022-12-07T02:35:21;1.90;99.90
8633;DHT22;4354;49.832;10.746;2022-12-07T02:38:18;1.90;99.90
8633;DHT22;4354;49.832;10.746;2022-12-07T02:40:57;1.90;99.90
8633;DHT22;4354;49.832;10.746;2022-12-07T02:43:29;1.90;99.90
8633;DHT22;4354;49.832;10.746;2022-12-07T02:46:08;1.90;99.90
8633;DHT22;4354;49.832;10.746;2022-12-07T02:48:37;1.90;99.90
8633;DHT22;4354;49.832;10.746;2022-12-07T02:51:05;1.90;99.90
8633;DHT22;4354;49.832;10.746;2022-12-07T02:53:36;1.80;99.90
8633;DHT22;4354;49.832;10.746;2022-12-07T03:07:06;1.60;99.90
8633;DHT22;4354;49.832;10.746;2022-12-07T03:12:18;1.50;99.90
8633;DHT22;4354;49.832;10.746;2022-12-07T03:14:54;1.50;99.90
8633;DHT22;4354;49.832;10.746;2022-12-07T03:17:30;1.50;99.90
8633;DHT22;4354;49.832;10.746;2022-12-07T03:20:02;1.50;99.90
8633;DHT22;4354;49.832;10.746;2022-12-07T03:22:32;1.50;99.90
8633;DHT22;4354;49.832;10.746;2022-12-07T03:25:08;1.50;99.90
8633;DHT22;4354;49.832;10.746;2022-12-07T03:27:54;1.60;99.90
8633;DHT22;4354;49.832;10.746;2022-12-07T03:31:14;1.60;99.90
8633;DHT22;4354;49.832;10.746;2022-12-07T03:33:24;1.60;99.90
8633;DHT22;4354;49.832;10.746;2022-12-07T03:36:20;1.60;99.90
8633;DHT22;4354;49.832;10.746;2022-12-07T03:39:01;1.70;99.90
8633;DHT22;4354;49.832;10.746;2022-12-07T03:41:34;1.70;99.90
8633;DHT22;4354;49.832;10.746;2022-12-07T03:44:07;1.60;99.90
8633;DHT22;4354;49.832;10.746;2022-12-07T03:46:46;1.60;99.90
8633;DHT22;4354;49.832;10.746;2022-12-07T03:49:24;1.70;99.90
8633;DHT22;4354;49.832;10.746;2022-12-07T03:52:16;1.70;99.90
8633;DHT22;4354;49.832;10.746;2022-12-07T03:55:02;1.80;99.90
8633;DHT22;4354;49.832;10.746;2022-12-07T03:57:33;1.80;99.90
8633;DHT22;4354;49.832;10.746;2022-12-07T04:00:03;1.80;99.90
8633;DHT22;4354;49.832;10.746;2022-12-07T04:02:30;1.80;99.90
8633;DHT22;4354;49.832;10.746;2022-12-07T04:04:58;1.80;99.90
8633;DHT22;4354;49.832;10.746;2022-12-07T04:07:25;1.90;99.90
8633;DHT22;4354;49.832;10.746;2022-12-07T04:09:53;1.90;99.90
8633;DHT22;4354;49.832;10.746;2022-12-07T04:12:24;1.90;99.90
8633;DHT22;4354;49.832;10.746;2022-12-07T04:14:51;1.90;99.90
8633;DHT22;4354;49.832;10.746;2022-12-07T04:17:17;1.90;99.90
8633;DHT22;4354;49.832;10.746;2022-12-07T04:19:44;1.90;99.90
8633;DHT22;4354;49.832;10.746;2022-12-07T04:22:11;2.00;99.90
8633;DHT22;4354;49.832;10.746;2022-12-07T04:24:38;2.00;99.90
8633;DHT22;4354;49.832;10.746;2022-12-07T04:27:05;2.00;99.90
8633;DHT22;4354;49.832;10.746;2022-12-07T04:29:32;2.00;99.90
8633;DHT22;4354;49.832;10.746;2022-12-07T04:31:59;2.00;99.90
8633;DHT22;4354;49.832;10.746;2022-12-07T04:34:26;2.10;99.90
8633;DHT22;4354;49.832;10.746;2022-12-07T04:36:53;2.10;99.90
8633;DHT22;4354;49.832;10.746;2022-12-07T04:39:26;2.10;99.90
8633;DHT22;4354;49.832;10.746;2022-12-07T04:41:53;2.10;99.90
8633;DHT22;4354;49.832;10.746;2022-12-07T04:44:21;2.10;99.90
8633;DHT22;4354;49.832;10.746;2022-12-07T04:46:48;2.10;99.90
8633;DHT22;4354;49.832;10.746;2022-12-07T04:49:16;2.20;99.90
8633;DHT22;4354;49.832;10.746;2022-12-07T04:51:43;2.20;99.90
8633;DHT22;4354;49.832;10.746;2022-12-07T04:54:11;2.20;99.90
8633;DHT22;4354;49.832;10.746;2022-12-07T04:56:39;2.20;99.90
8633;DHT22;4354;49.832;10.746;2022-12-07T04:59:06;2.10;99.90
8633;DHT22;4354;49.832;10.746;2022-12-07T05:01:33;2.10;99.90
8633;DHT22;4354;49.832;10.746;2022-12-07T05:04:00;2.20;99.90
8633;DHT22;4354;49.832;10.746;2022-12-07T05:06:27;2.20;99.90
8633;DHT22;4354;49.832;10.746;2022-12-07T05:08:54;2.10;99.90
8633;DHT22;4354;49.832;10.746;2022-12-07T05:11:22;2.20;99.90
8633;DHT22;4354;49.832;10.746;2022-12-07T05:14:09;2.20;99.90
8633;DHT22;4354;49.832;10.746;2022-12-07T05:16:36;2.20;99.90
8633;DHT22;4354;49.832;10.746;2022-12-07T05:19:04;2.20;99.90
8633;DHT22;4354;49.832;10.746;2022-12-07T05:21:32;2.30;99.90
8633;DHT22;4354;49.832;10.746;2022-12-07T05:24:19;2.30;99.90
8633;DHT22;4354;49.832;10.746;2022-12-07T05:26:46;2.30;99.90
8633;DHT22;4354;49.832;10.746;2022-12-07T05:29:15;2.30;99.90
8633;DHT22;4354;49.832;10.746;2022-12-07T05:31:44;2.30;99.90
8633;DHT22;4354;49.832;10.746;2022-12-07T05:34:11;2.30;99.90
8633;DHT22;4354;49.832;10.746;2022-12-07T05:36:39;2.30;99.90
8633;DHT22;4354;49.832;10.746;2022-12-07T05:39:06;2.30;99.90
8633;DHT22;4354;49.832;10.746;2022-12-07T05:41:34;2.30;99.90
8633;DHT22;4354;49.832;10.746;2022-12-07T05:44:19;2.30;99.90
8633;DHT22;4354;49.832;10.746;2022-12-07T05:46:46;2.40;99.90
8633;DHT22;4354;49.832;10.746;2022-12-07T05:49:13;2.40;99.90
8633;DHT22;4354;49.832;10.746;2022-12-07T05:51:40;2.40;99.90
8633;DHT22;4354;49.832;10.746;2022-12-07T05:54:06;2.40;99.90
8633;DHT22;4354;49.832;10.746;2022-12-07T05:56:33;2.40;99.90
8633;DHT22;4354;49.832;10.746;2022-12-07T05:59:00;2.30;99.90
8633;DHT22;4354;49.832;10.746;2022-12-07T06:02:09;2.30;99.90
8633;DHT22;4354;49.832;10.746;2022-12-07T06:04:41;2.30;99.90
8633;DHT22;4354;49.832;10.746;2022-12-07T06:07:09;2.30;99.90
8633;DHT22;4354;49.832;10.746;2022-12-07T06:09:36;2.40;99.90
8633;DHT22;4354;49.832;10.746;2022-12-07T06:12:10;2.40;99.90
8633;DHT22;4354;49.832;10.746;2022-12-07T06:14:55;2.40;99.90
8633;DHT22;4354;49.832;10.746;2022-12-07T06:17:22;2.40;99.90
8633;DHT22;4354;49.832;10.746;2022-12-07T06:19:50;2.40;99.90
8633;DHT22;4354;49.832;10.746;2022-12-07T06:22:17;2.40;99.90
8633;DHT22;4354;49.832;10.746;2022-12-07T06:24:44;2.40;99.90
8633;DHT22;4354;49.832;10.746;2022-12-07T06:27:11;2.40;99.90
8633;DHT22;4354;49.832;10.746;2022-12-07T06:29:38;2.40;99.90
8633;DHT22;4354;49.832;10.746;2022-12-07T06:32:05;2.40;99.90
8633;DHT22;4354;49.832;10.746;2022-12-07T06:34:32;2.40;99.90
8633;DHT22;4354;49.832;10.746;2022-12-07T06:36:59;2.40;99.90
8633;DHT22;4354;49.832;10.746;2022-12-07T06:39:27;2.40;99.90
8633;DHT22;4354;49.832;10.746;2022-12-07T06:41:55;2.40;99.90
8633;DHT22;4354;49.832;10.746;2022-12-07T06:44:23;2.50;99.90
8633;DHT22;4354;49.832;10.746;2022-12-07T06:46:51;2.50;99.90
8633;DHT22;4354;49.832;10.746;2022-12-07T06:49:21;2.50;99.90
8633;DHT22;4354;49.832;10.746;2022-12-07T06:51:48;2.50;99.90
8633;DHT22;4354;49.832;10.746;2022-12-07T06:54:15;2.50;99.90
8633;DHT22;4354;49.832;10.746;2022-12-07T06:56:42;2.50;99.90
8633;DHT22;4354;49.832;10.746;2022-12-07T06:59:09;2.50;99.90
8633;DHT22;4354;49.832;10.746;2022-12-07T07:01:36;2.50;99.90
8633;DHT22;4354;49.832;10.746;2022-12-07T07:04:03;2.50;99.90
8633;DHT22;4354;49.832;10.746;2022-12-07T07:06:30;2.50;99.90
8633;DHT22;4354;49.832;10.746;2022-12-07T07:08:57;2.50;99.90
8633;DHT22;4354;49.832;10.746;2022-12-07T07:11:24;2.50;99.90
8633;DHT22;4354;49.832;10.746;2022-12-07T07:13:51;2.50;99.90
8633;DHT22;4354;49.832;10.746;2022-12-07T07:16:18;2.50;99.90
8633;DHT22;4354;49.832;10.746;2022-12-07T07:18:45;2.60;99.90
8633;DHT22;4354;49.832;10.746;2022-12-07T07:21:12;2.60;99.90
8633;DHT22;4354;49.832;10.746;2022-12-07T07:23:39;2.60;99.90
8633;DHT22;4354;49.832;10.746;2022-12-07T07:26:05;2.60;99.90
8633;DHT22;4354;49.832;10.746;2022-12-07T07:28:32;2.60;99.90
8633;DHT22;4354;49.832;10.746;2022-12-07T07:30:59;2.60;99.90
8633;DHT22;4354;49.832;10.746;2022-12-07T07:33:26;2.60;99.90
8633;DHT22;4354;49.832;10.746;2022-12-07T07:35:53;2.70;99.90
8633;DHT22;4354;49.832;10.746;2022-12-07T07:38:20;2.70;99.90
8633;DHT22;4354;49.832;10.746;2022-12-07T07:40:47;2.80;99.90
8633;DHT22;4354;49.832;10.746;2022-12-07T07:43:13;2.80;99.90
8633;DHT22;4354;49.832;10.746;2022-12-07T07:45:40;2.80;99.90
8633;DHT22;4354;49.832;10.746;2022-12-07T07:48:10;2.80;99.90
8633;DHT22;4354;49.832;10.746;2022-12-07T07:50:37;2.80;99.90
8633;DHT22;4354;49.832;10.746;2022-12-07T07:53:04;2.80;99.90
8633;DHT22;4354;49.832;10.746;2022-12-07T07:55:31;2.80;99.90
8633;DHT22;4354;49.832;10.746;2022-12-07T07:57:58;2.90;99.90
8633;DHT22;4354;49.832;10.746;2022-12-07T08:00:25;2.90;99.90
8633;DHT22;4354;49.832;10.746;2022-12-07T08:02:51;2.80;99.90
8633;DHT22;4354;49.832;10.746;2022-12-07T08:05:18;2.90;99.90
8633;DHT22;4354;49.832;10.746;2022-12-07T08:07:45;2.90;99.90
8633;DHT22;4354;49.832;10.746;2022-12-07T08:10:13;3.00;99.90
8633;DHT22;4354;49.832;10.746;2022-12-07T08:12:41;3.00;99.90
8633;DHT22;4354;49.832;10.746;2022-12-07T08:15:29;3.00;99.90
8633;DHT22;4354;49.832;10.746;2022-12-07T08:17:56;3.00;99.90
8633;DHT22;4354;49.832;10.746;2022-12-07T08:20:23;3.10;99.90
8633;DHT22;4354;49.832;10.746;2022-12-07T08:22:50;3.10;99.90
8633;DHT22;4354;49.832;10.746;2022-12-07T08:25:17;3.20;99.90
8633;DHT22;4354;49.832;10.746;2022-12-07T08:27:44;3.20;99.90
8633;DHT22;4354;49.832;10.746;2022-12-07T08:30:11;3.20;99.90
8633;DHT22;4354;49.832;10.746;2022-12-07T08:32:38;3.20;99.90
8633;DHT22;4354;49.832;10.746;2022-12-07T08:35:05;3.20;99.90
8633;DHT22;4354;49.832;10.746;2022-12-07T08:37:32;3.30;99.90
8633;DHT22;4354;49.832;10.746;2022-12-07T08:39:59;3.30;99.90
8633;DHT22;4354;49.832;10.746;2022-12-07T08:42:27;3.30;99.90
8633;DHT22;4354;49.832;10.746;2022-12-07T08:44:57;3.30;99.90
8633;DHT22;4354;49.832;10.746;2022-12-07T08:47:24;3.30;99.90
8633;DHT22;4354;49.832;10.746;2022-12-07T08:49:52;3.40;99.90
8633;DHT22;4354;49.832;10.746;2022-12-07T08:52:20;3.40;99.90
8633;DHT22;4354;49.832;10.746;2022-12-07T08:54:47;3.40;99.90
8633;DHT22;4354;49.832;10.746;2022-12-07T08:57:14;3.40;99.90
8633;DHT22;4354;49.832;10.746;2022-12-07T08:59:41;3.40;99.90
8633;DHT22;4354;49.832;10.746;2022-12-07T09:02:08;3.40;99.90
8633;DHT22;4354;49.832;10.746;2022-12-07T09:04:35;3.40;99.90
8633;DHT22;4354;49.832;10.746;2022-12-07T09:07:02;3.40;99.90
8633;DHT22;4354;49.832;10.746;2022-12-07T09:09:29;3.40;99.90
8633;DHT22;4354;49.832;10.746;2022-12-07T09:11:56;3.40;99.90
8633;DHT22;4354;49.832;10.746;2022-12-07T09:14:23;3.50;99.90
8633;DHT22;4354;49.832;10.746;2022-12-07T09:16:50;3.50;99.90
8633;DHT22;4354;49.832;10.746;2022-12-07T09:19:18;3.50;99.90
8633;DHT22;4354;49.832;10.746;2022-12-07T09:21:44;3.50;99.90
8633;DHT22;4354;49.832;10.746;2022-12-07T09:24:12;3.40;99.90
8633;DHT22;4354;49.832;10.746;2022-12-07T09:26:39;3.40;99.90
8633;DHT22;4354;49.832;10.746;2022-12-07T09:29:07;3.50;99.90
8633;DHT22;4354;49.832;10.746;2022-12-07T09:31:36;3.50;99.90
8633;DHT22;4354;49.832;10.746;2022-12-07T09:34:03;3.50;99.90
8633;DHT22;4354;49.832;10.746;2022-12-07T09:36:34;3.50;99.90
8633;DHT22;4354;49.832;10.746;2022-12-07T09:39:01;3.50;99.90
8633;DHT22;4354;49.832;10.746;2022-12-07T09:41:30;3.50;99.90
8633;DHT22;4354;49.832;10.746;2022-12-07T09:44:04;3.50;99.90
8633;DHT22;4354;49.832;10.746;2022-12-07T09:46:35;3.60;99.90
8633;DHT22;4354;49.832;10.746;2022-12-07T09:49:04;3.60;99.90
8633;DHT22;4354;49.832;10.746;2022-12-07T09:51:32;3.60;99.90
8633;DHT22;4354;49.832;10.746;2022-12-07T09:53:59;3.60;99.90
8633;DHT22;4354;49.832;10.746;2022-12-07T09:56:29;3.60;99.90
8633;DHT22;4354;49.832;10.746;2022-12-07T09:59:02;3.60;99.90
8633;DHT22;4354;49.832;10.746;2022-12-07T10:01:31;3.60;99.90
8633;DHT22;4354;49.832;10.746;2022-12-07T10:04:16;3.60;99.90
8633;DHT22;4354;49.832;10.746;2022-12-07T10:06:45;3.60;99.90
8633;DHT22;4354;49.832;10.746;2022-12-07T10:09:14;3.70;99.90
8633;DHT22;4354;49.832;10.746;2022-12-07T10:12:02;3.70;99.90
8633;DHT22;4354;49.832;10.746;2022-12-07T10:14:33;3.70;99.90
8633;DHT22;4354;49.832;10.746;2022-12-07T10:20:24;3.70;99.90
8633;DHT22;4354;49.832;10.746;2022-12-07T10:23:08;3.70;99.90
8633;DHT22;4354;49.832;10.746;2022-12-07T10:25:39;3.70;99.90
8633;DHT22;4354;49.832;10.746;2022-12-07T10:31:01;3.80;99.90
8633;DHT22;4354;49.832;10.746;2022-12-07T10:33:37;3.80;99.90
8633;DHT22;4354;49.832;10.746;2022-12-07T10:36:24;3.80;99.90
8633;DHT22;4354;49.832;10.746;2022-12-07T10:41:30;3.90;99.90
8633;DHT22;4354;49.832;10.746;2022-12-07T10:43:58;3.90;99.90
8633;DHT22;4354;49.832;10.746;2022-12-07T10:55:26;4.10;99.90
8633;DHT22;4354;49.832;10.746;2022-12-07T11:06:14;4.30;99.90
8633;DHT22;4354;49.832;10.746;2022-12-07T11:11:38;4.30;99.90
8633;DHT22;4354;49.832;10.746;2022-12-07T11:21:54;4.60;99.90
8633;DHT22;4354;49.832;10.746;2022-12-07T11:32:53;4.60;99.90
8633;DHT22;4354;49.832;10.746;2022-12-07T11:38:17;4.40;99.90
8633;DHT22;4354;49.832;10.746;2022-12-07T11:40:58;4.40;99.90
8633;DHT22;4354;49.832;10.746;2022-12-07T11:44:07;4.30;99.90
8633;DHT22;4354;49.832;10.746;2022-12-07T11:51:51;4.10;99.90
8633;DHT22;4354;49.832;10.746;2022-12-07T11:54:29;4.10;99.90
8633;DHT22;4354;49.832;10.746;2022-12-07T11:57:03;4.10;99.90
8633;DHT22;4354;49.832;10.746;2022-12-07T11:59:39;4.10;99.90
8633;DHT22;4354;49.832;10.746;2022-12-07T12:02:15;4.10;99.90
8633;DHT22;4354;49.832;10.746;2022-12-07T12:07:44;4.40;99.90
8633;DHT22;4354;49.832;10.746;2022-12-07T12:10:39;4.50;99.90
8633;DHT22;4354;49.832;10.746;2022-12-07T12:19:16;4.80;99.90
8633;DHT22;4354;49.832;10.746;2022-12-07T12:21:47;4.80;99.90
8633;DHT22;4354;49.832;10.746;2022-12-07T12:24:24;4.90;99.90
8633;DHT22;4354;49.832;10.746;2022-12-07T12:26:56;4.90;99.90
8633;DHT22;4354;49.832;10.746;2022-12-07T12:32:22;4.90;99.90
8633;DHT22;4354;49.832;10.746;2022-12-07T12:37:41;4.90;99.90
8633;DHT22;4354;49.832;10.746;2022-12-07T12:42:55;4.80;99.90
8633;DHT22;4354;49.832;10.746;2022-12-07T12:45:28;4.80;99.90
8633;DHT22;4354;49.832;10.746;2022-12-07T12:53:21;4.80;99.90
8633;DHT22;4354;49.832;10.746;2022-12-07T12:58:47;4.70;99.90
8633;DHT22;4354;49.832;10.746;2022-12-07T13:03:55;4.70;99.90
8633;DHT22;4354;49.832;10.746;2022-12-07T13:09:02;4.70;99.90
8633;DHT22;4354;49.832;10.746;2022-12-07T13:11:35;4.60;99.90
8633;DHT22;4354;49.832;10.746;2022-12-07T13:17:11;4.60;99.90
8633;DHT22;4354;49.832;10.746;2022-12-07T13:24:58;4.70;99.90
8633;DHT22;4354;49.832;10.746;2022-12-07T13:27:27;4.70;99.90
8633;DHT22;4354;49.832;10.746;2022-12-07T13:29:56;4.70;99.90
8633;DHT22;4354;49.832;10.746;2022-12-07T13:32:26;4.80;99.90
8633;DHT22;4354;49.832;10.746;2022-12-07T13:34:53;4.80;99.90
8633;DHT22;4354;49.832;10.746;2022-12-07T13:37:26;4.80;99.90
8633;DHT22;4354;49.832;10.746;2022-12-07T13:40:18;4.80;99.90
8633;DHT22;4354;49.832;10.746;2022-12-07T13:42:45;4.80;99.90
8633;DHT22;4354;49.832;10.746;2022-12-07T13:45:29;4.80;99.90
8633;DHT22;4354;49.832;10.746;2022-12-07T13:50:55;4.80;99.90
8633;DHT22;4354;49.832;10.746;2022-12-07T13:53:22;4.80;99.90
8633;DHT22;4354;49.832;10.746;2022-12-07T13:55:50;4.80;99.90
8633;DHT22;4354;49.832;10.746;2022-12-07T13:58:21;4.80;99.90
8633;DHT22;4354;49.832;10.746;2022-12-07T14:00:48;4.80;99.90
8633;DHT22;4354;49.832;10.746;2022-12-07T14:05:44;4.80;99.90
8633;DHT22;4354;49.832;10.746;2022-12-07T14:13:37;4.70;99.90
8633;DHT22;4354;49.832;10.746;2022-12-07T14:16:33;4.60;99.90
8633;DHT22;4354;49.832;10.746;2022-12-07T14:19:04;4.60;99.90
8633;DHT22;4354;49.832;10.746;2022-12-07T14:21:33;4.60;99.90
8633;DHT22;4354;49.832;10.746;2022-12-07T14:24:27;4.60;99.90
8633;DHT22;4354;49.832;10.746;2022-12-07T14:26:54;4.60;99.90
8633;DHT22;4354;49.832;10.746;2022-12-07T14:31:55;4.60;99.90
8633;DHT22;4354;49.832;10.746;2022-12-07T14:34:23;4.50;99.90
8633;DHT22;4354;49.832;10.746;2022-12-07T14:36:50;4.50;99.90
8633;DHT22;4354;49.832;10.746;2022-12-07T14:39:17;4.40;99.90
8633;DHT22;4354;49.832;10.746;2022-12-07T14:41:44;4.30;99.90
8633;DHT22;4354;49.832;10.746;2022-12-07T14:44:21;4.10;99.90
8633;DHT22;4354;49.832;10.746;2022-12-07T14:46:53;4.00;99.90
8633;DHT22;4354;49.832;10.746;2022-12-07T14:49:40;3.90;99.90
8633;DHT22;4354;49.832;10.746;2022-12-07T14:52:16;3.90;99.90
8633;DHT22;4354;49.832;10.746;2022-12-07T14:55:04;3.80;99.90
8633;DHT22;4354;49.832;10.746;2022-12-07T14:57:32;3.60;99.90
8633;DHT22;4354;49.832;10.746;2022-12-07T14:59:58;3.50;99.90
8633;DHT22;4354;49.832;10.746;2022-12-07T15:02:25;3.30;99.90
8633;DHT22;4354;49.832;10.746;2022-12-07T15:04:52;3.20;99.90
8633;DHT22;4354;49.832;10.746;2022-12-07T15:07:20;3.20;99.90
8633;DHT22;4354;49.832;10.746;2022-12-07T15:09:48;3.20;99.90
8633;DHT22;4354;49.832;10.746;2022-12-07T15:12:15;3.20;99.90
8633;DHT22;4354;49.832;10.746;2022-12-07T15:14:45;3.30;99.90
8633;DHT22;4354;49.832;10.746;2022-12-07T15:17:12;3.30;99.90
8633;DHT22;4354;49.832;10.746;2022-12-07T15:19:55;3.40;99.90
8633;DHT22;4354;49.832;10.746;2022-12-07T15:22:22;3.40;99.90
8633;DHT22;4354;49.832;10.746;2022-12-07T15:24:49;3.40;99.90
8633;DHT22;4354;49.832;10.746;2022-12-07T15:27:15;3.30;99.90
8633;DHT22;4354;49.832;10.746;2022-12-07T15:29:42;3.40;99.90
8633;DHT22;4354;49.832;10.746;2022-12-07T15:32:09;3.30;99.90
8633;DHT22;4354;49.832;10.746;2022-12-07T15:34:36;3.40;99.90
8633;DHT22;4354;49.832;10.746;2022-12-07T15:37:06;3.40;99.90
8633;DHT22;4354;49.832;10.746;2022-12-07T15:39:33;3.40;99.90
8633;DHT22;4354;49.832;10.746;2022-12-07T15:42:00;3.40;99.90
8633;DHT22;4354;49.832;10.746;2022-12-07T15:44:27;3.40;99.90
8633;DHT22;4354;49.832;10.746;2022-12-07T15:47:12;3.40;99.90
8633;DHT22;4354;49.832;10.746;2022-12-07T15:49:39;2.90;99.90
8633;DHT22;4354;49.832;10.746;2022-12-07T15:52:06;3.40;99.90
8633;DHT22;4354;49.832;10.746;2022-12-07T15:54:33;3.40;99.90
8633;DHT22;4354;49.832;10.746;2022-12-07T15:57:00;3.30;99.90
8633;DHT22;4354;49.832;10.746;2022-12-07T15:59:28;3.20;99.90
8633;DHT22;4354;49.832;10.746;2022-12-07T16:01:55;3.20;99.90
8633;DHT22;4354;49.832;10.746;2022-12-07T16:04:22;3.10;99.90
8633;DHT22;4354;49.832;10.746;2022-12-07T16:06:49;3.00;99.90
8633;DHT22;4354;49.832;10.746;2022-12-07T16:09:18;2.90;99.90
8633;DHT22;4354;49.832;10.746;2022-12-07T16:11:45;2.90;99.90
8633;DHT22;4354;49.832;10.746;2022-12-07T16:14:13;2.90;99.90
8633;DHT22;4354;49.832;10.746;2022-12-07T16:16:40;2.90;99.90
8633;DHT22;4354;49.832;10.746;2022-12-07T16:19:09;2.80;99.90
8633;DHT22;4354;49.832;10.746;2022-12-07T16:21:37;2.70;99.90
8633;DHT22;4354;49.832;10.746;2022-12-07T16:24:05;2.60;99.90
8633;DHT22;4354;49.832;10.746;2022-12-07T16:26:32;2.40;99.90
8633;DHT22;4354;49.832;10.746;2022-12-07T16:28:59;2.40;99.90
8633;DHT22;4354;49.832;10.746;2022-12-07T16:31:27;2.30;99.90
8633;DHT22;4354;49.832;10.746;2022-12-07T16:33:56;2.20;99.90
8633;DHT22;4354;49.832;10.746;2022-12-07T16:36:24;2.20;99.90
8633;DHT22;4354;49.832;10.746;2022-12-07T16:39:12;2.10;99.90
8633;DHT22;4354;49.832;10.746;2022-12-07T16:41:39;2.10;99.90
8633;DHT22;4354;49.832;10.746;2022-12-07T16:44:10;2.10;99.90
8633;DHT22;4354;49.832;10.746;2022-12-07T16:46:38;2.10;99.90
8633;DHT22;4354;49.832;10.746;2022-12-07T16:49:05;2.20;99.90
8633;DHT22;4354;49.832;10.746;2022-12-07T16:51:32;2.20;99.90
8633;DHT22;4354;49.832;10.746;2022-12-07T16:54:01;2.30;99.90
8633;DHT22;4354;49.832;10.746;2022-12-07T16:56:28;2.30;99.90
8633;DHT22;4354;49.832;10.746;2022-12-07T16:58:58;2.40;99.90
8633;DHT22;4354;49.832;10.746;2022-12-07T17:01:25;2.40;99.90
8633;DHT22;4354;49.832;10.746;2022-12-07T17:03:56;2.40;99.90
8633;DHT22;4354;49.832;10.746;2022-12-07T17:06:25;2.50;99.90
8633;DHT22;4354;49.832;10.746;2022-12-07T17:08:53;2.50;99.90
8633;DHT22;4354;49.832;10.746;2022-12-07T17:11:22;2.60;99.90
8633;DHT22;4354;49.832;10.746;2022-12-07T17:13:49;2.60;99.90
8633;DHT22;4354;49.832;10.746;2022-12-07T17:16:35;2.60;99.90
8633;DHT22;4354;49.832;10.746;2022-12-07T17:19:08;2.70;99.90
8633;DHT22;4354;49.832;10.746;2022-12-07T17:21:35;2.80;99.90
8633;DHT22;4354;49.832;10.746;2022-12-07T17:24:05;2.80;99.90
8633;DHT22;4354;49.832;10.746;2022-12-07T17:26:32;2.90;99.90
8633;DHT22;4354;49.832;10.746;2022-12-07T17:29:03;2.90;99.90
8633;DHT22;4354;49.832;10.746;2022-12-07T17:31:32;2.90;99.90
8633;DHT22;4354;49.832;10.746;2022-12-07T17:33:59;2.90;99.90
8633;DHT22;4354;49.832;10.746;2022-12-07T17:36:29;2.90;99.90
8633;DHT22;4354;49.832;10.746;2022-12-07T17:38:59;2.90;99.90
8633;DHT22;4354;49.832;10.746;2022-12-07T17:41:29;2.90;99.90
8633;DHT22;4354;49.832;10.746;2022-12-07T17:44:18;2.90;99.90
8633;DHT22;4354;49.832;10.746;2022-12-07T17:46:48;2.90;99.90
8633;DHT22;4354;49.832;10.746;2022-12-07T17:49:16;2.80;99.90
8633;DHT22;4354;49.832;10.746;2022-12-07T17:51:42;2.80;99.90
8633;DHT22;4354;49.832;10.746;2022-12-07T17:54:28;2.80;99.90
8633;DHT22;4354;49.832;10.746;2022-12-07T17:56:56;2.70;99.90
8633;DHT22;4354;49.832;10.746;2022-12-07T17:59:23;2.70;99.90
8633;DHT22;4354;49.832;10.746;2022-12-07T18:01:50;2.60;99.90
8633;DHT22;4354;49.832;10.746;2022-12-07T18:04:20;2.60;99.90
8633;DHT22;4354;49.832;10.746;2022-12-07T18:06:47;2.50;99.90
8633;DHT22;4354;49.832;10.746;2022-12-07T18:09:18;2.50;99.90
8633;DHT22;4354;49.832;10.746;2022-12-07T18:11:45;2.50;99.90
8633;DHT22;4354;49.832;10.746;2022-12-07T18:14:12;2.40;99.90
8633;DHT22;4354;49.832;10.746;2022-12-07T18:16:39;2.40;99.90
8633;DHT22;4354;49.832;10.746;2022-12-07T18:19:07;2.30;99.90
8633;DHT22;4354;49.832;10.746;2022-12-07T18:21:34;2.20;99.90
8633;DHT22;4354;49.832;10.746;2022-12-07T18:24:03;2.20;99.90
8633;DHT22;4354;49.832;10.746;2022-12-07T18:26:32;2.10;99.90
8633;DHT22;4354;49.832;10.746;2022-12-07T18:29:01;2.20;99.90
8633;DHT22;4354;49.832;10.746;2022-12-07T18:31:28;2.10;99.90
8633;DHT22;4354;49.832;10.746;2022-12-07T18:34:03;2.10;99.90
8633;DHT22;4354;49.832;10.746;2022-12-07T18:36:30;2.10;99.90
8633;DHT22;4354;49.832;10.746;2022-12-07T18:38:57;2.00;99.90
8633;DHT22;4354;49.832;10.746;2022-12-07T18:41:24;2.00;99.90
8633;DHT22;4354;49.832;10.746;2022-12-07T18:43:51;1.90;99.90